Time;durP1;ratioP1;P1;durP2;ratioP2;P2;SDS_P1;SDS_P2;PMS_P1;PMS_P2;Temp;Humidity;BMP_temperature;BMP_pressure;BME280_temperature;BME280_humidity;BME280_pressure;Samples;Min_cycle;Max_cycle;Signal;HPM_P1;HPM_P2
2023/12/12 00:00:59;;;;;;;6.17;4.50;;;;;;;-141.84;100.00;96615.84;5014009;28;20234;-66
2023/12/12 00:03:28;;;;;;;6.47;4.73;;;;;;;-141.84;100.00;96881.06;5006966;28;20206;-66
2023/12/12 00:06:01;;;;;;;6.40;4.30;;;;;;;-141.84;100.00;100330.69;5008346;28;20214;-65
2023/12/12 00:08:31;;;;;;;5.90;4.43;;;;;;;-141.84;100.00;102986.25;5007339;28;20288;-66
2023/12/12 00:10:59;;;;;;;5.13;4.20;;;;;;;-141.84;100.00;108036.56;5007537;28;20724;-66
2023/12/12 00:13:28;;;;;;;5.50;3.80;;;;;;;-141.84;100.00;110431.03;5011833;28;20234;-66
2023/12/12 00:15:57;;;;;;;4.73;3.93;;;;;;;-141.84;100.00;112560.63;5013757;28;20230;-65
2023/12/12 00:18:25;;;;;;;6.40;3.27;;;;;;;-141.84;100.00;114691.31;5014822;28;20257;-66
2023/12/12 00:20:54;;;;;;;5.00;3.60;;;;;;;-141.84;100.00;116290.06;5014158;28;20230;-65
2023/12/12 00:23:22;;;;;;;5.47;3.40;;;;;;;-141.84;100.00;115224.16;5014089;28;20285;-66
2023/12/12 00:25:52;;;;;;;3.40;3.03;;;;;;;-141.84;100.00;115224.16;5013969;28;20730;-66
2023/12/12 00:28:21;;;;;;;4.33;3.23;;;;;;;-141.84;100.00;114158.53;5013634;28;20325;-65
2023/12/12 00:30:50;;;;;;;5.40;3.67;;;;;;;-141.84;100.00;113359.50;5030905;28;20586;-66
2023/12/12 00:33:18;;;;;;;4.87;2.97;;;;;;;-141.84;100.00;115224.16;5020601;28;20230;-66
2023/12/12 00:35:47;;;;;;;3.87;3.10;;;;;;;-141.84;100.00;115757.06;5013649;28;20285;-66
2023/12/12 00:38:15;;;;;;;3.77;2.97;;;;;;;-141.84;100.00;116290.06;5013658;28;20258;-67
2023/12/12 00:40:53;;;;;;;4.27;3.00;;;;;;;-141.84;100.00;117622.84;5013599;28;20230;-66
2023/12/12 00:43:22;;;;;;;4.40;3.37;;;;;;;-141.84;100.00;118422.72;5013377;28;20245;-66
2023/12/12 00:45:52;;;;;;;4.43;3.40;;;;;;;-141.84;100.00;118956.03;5013628;28;20374;-65
2023/12/12 00:48:20;;;;;;;5.77;3.87;;;;;;;-141.84;100.00;119222.75;5014102;28;20218;-65
2023/12/12 00:50:49;;;;;;;5.90;3.47;;;;;;;-141.84;100.00;119224.81;5013848;28;20226;-66
2023/12/12 00:53:17;;;;;;;6.50;4.10;;;;;;;-141.84;100.00;119224.81;5013556;28;20226;-66
2023/12/12 00:55:46;;;;;;;4.33;3.60;;;;;;;-141.84;100.00;119224.81;5014430;28;20226;-66
2023/12/12 00:58:16;;;;;;;4.73;3.60;;;;;;;-141.84;100.00;119224.81;5013982;28;20234;-65
2023/12/12 01:00:44;;;;;;;5.00;3.80;;;;;;;-141.84;100.00;119224.81;5030103;28;20225;-66
2023/12/12 01:03:13;;;;;;;5.30;3.57;;;;;;;-141.84;100.00;119224.81;5033940;28;20210;-67
2023/12/12 01:05:41;;;;;;;4.40;3.57;;;;;;;-141.84;100.00;119224.81;5020282;28;20239;-66
2023/12/12 01:08:10;;;;;;;5.10;3.70;;;;;;;-141.84;100.00;119224.81;4994244;28;20883;-68
2023/12/12 01:10:38;;;;;;;5.67;4.07;;;;;;;-141.84;100.00;119224.81;5010570;28;20273;-66
2023/12/12 01:13:07;;;;;;;5.87;3.97;;;;;;;-141.84;100.00;119224.81;5013342;28;20312;-65
2023/12/12 01:15:37;;;;;;;4.60;3.67;;;;;;;-141.84;100.00;119224.81;5012639;28;20665;-67
2023/12/12 01:18:05;;;;;;;7.27;4.30;;;;;;;-141.84;100.00;119224.81;5012715;28;20299;-66
2023/12/12 01:20:34;;;;;;;4.67;3.37;;;;;;;-141.84;100.00;119222.75;5013108;28;20849;-66
2023/12/12 01:23:02;;;;;;;4.70;3.50;;;;;;;-141.84;100.00;119222.75;5012840;28;20257;-66
2023/12/12 01:25:31;;;;;;;5.80;3.40;;;;;;;-141.84;100.00;119224.81;5011915;28;20230;-66
2023/12/12 01:28:00;;;;;;;4.73;3.50;;;;;;;-141.84;100.00;119224.81;5013014;28;20229;-67
2023/12/12 01:30:28;;;;;;;6.07;3.37;;;;;;;-141.84;100.00;119224.81;5027685;28;20548;-66
2023/12/12 01:32:58;;;;;;;4.87;3.47;;;;;;;-141.84;100.00;119224.81;5022335;28;20234;-65
2023/12/12 01:35:27;;;;;;;4.47;3.10;;;;;;;-141.84;100.00;119224.81;5000065;28;20227;-67
2023/12/12 01:37:55;;;;;;;5.07;3.50;;;;;;;-141.84;100.00;119224.81;4993373;28;20250;-66
2023/12/12 01:40:24;;;;;;;4.30;3.10;;;;;;;-141.84;100.00;119224.81;4993498;28;20235;-65
2023/12/12 01:43:03;;;;;;;4.07;2.80;;;;;;;-141.84;100.00;119224.81;4993005;28;20327;-66
2023/12/12 01:45:32;;;;;;;3.43;2.90;;;;;;;-141.84;100.00;119224.81;4993710;28;20655;-66
2023/12/12 01:48:02;;;;;;;3.47;2.90;;;;;;;-141.84;100.00;119224.81;4993538;28;20234;-65
2023/12/12 01:50:31;;;;;;;4.03;2.97;;;;;;;-141.84;100.00;119224.81;4993083;28;20753;-66
2023/12/12 01:52:59;;;;;;;5.33;3.13;;;;;;;-141.84;100.00;119224.81;4993155;28;20317;-66
2023/12/12 01:55:28;;;;;;;3.13;2.83;;;;;;;-141.84;100.00;119224.81;4993190;28;20231;-65
2023/12/12 01:57:56;;;;;;;3.80;3.00;;;;;;;-141.84;100.00;119224.81;4992759;28;20305;-65
2023/12/12 02:00:25;;;;;;;4.00;2.80;;;;;;;-141.84;100.00;119224.81;5020739;28;20206;-67
2023/12/12 02:02:54;;;;;;;3.07;2.70;;;;;;;-141.84;100.00;119224.81;5015603;28;20296;-66
2023/12/12 02:05:26;;;;;;;3.47;2.93;;;;;;;-141.84;100.00;119224.81;5011940;28;20742;-65
2023/12/12 02:07:57;;;;;;;3.70;2.83;;;;;;;-141.84;100.00;119224.81;5011933;28;20227;-66
2023/12/12 02:10:26;;;;;;;4.60;3.30;;;;;;;-141.84;100.00;119224.81;5011906;28;20635;-66
2023/12/12 02:12:54;;;;;;;3.67;2.57;;;;;;;-141.84;100.00;119224.81;5011683;28;20238;-67
2023/12/12 02:15:23;;;;;;;5.20;2.83;;;;;;;-141.84;100.00;119224.81;5012865;28;20552;-66
2023/12/12 02:17:52;;;;;;;3.30;3.00;;;;;;;-141.84;100.00;119224.81;5011672;28;20292;-66
2023/12/12 02:20:20;;;;;;;3.33;2.83;;;;;;;-141.84;100.00;119224.81;5011918;28;20875;-66
2023/12/12 02:22:50;;;;;;;3.47;3.17;;;;;;;-141.84;100.00;119224.81;5011421;28;20311;-68
2023/12/12 02:25:19;;;;;;;2.93;2.63;;;;;;;-141.84;100.00;119222.75;5012214;28;20231;-66
2023/12/12 02:27:48;;;;;;;4.03;2.50;;;;;;;-141.84;100.00;119222.75;5011710;28;20203;-66
2023/12/12 02:30:18;;;;;;;3.53;2.50;;;;;;;-141.84;100.00;118689.38;5024937;28;20283;-66
2023/12/12 02:32:46;;;;;;;2.60;2.33;;;;;;;-141.84;100.00;117622.84;5022198;28;20266;-65
2023/12/12 02:35:14;;;;;;;3.77;2.33;;;;;;;-141.84;100.00;116023.56;5011226;28;20654;-67
2023/12/12 02:37:43;;;;;;;2.87;2.10;;;;;;;-141.84;100.00;116290.06;5011627;28;20311;-66
2023/12/12 02:40:13;;;;;;;2.13;1.93;;;;;;;-141.84;100.00;116023.56;5011349;28;20233;-66
2023/12/12 02:42:44;;;;;;;2.57;2.00;;;;;;;-141.84;100.00;112294.34;5011504;28;20207;-65
2023/12/12 02:45:13;;;;;;;2.27;2.07;;;;;;;-141.84;100.00;112028.13;5012168;28;20633;-66
2023/12/12 02:47:41;;;;;;;3.67;2.20;;;;;;;-141.84;100.00;112294.34;5011246;28;20262;-66
2023/12/12 02:50:10;;;;;;;2.93;2.63;;;;;;;-141.84;100.00;113093.19;5011212;28;20238;-66
2023/12/12 02:52:39;;;;;;;3.40;2.20;;;;;;;-141.84;100.00;114691.31;5011240;28;20280;-66
2023/12/12 02:55:08;;;;;;;2.63;2.30;;;;;;;-141.84;100.00;115224.16;5011230;28;20238;-66
2023/12/12 02:57:38;;;;;;;3.90;2.90;;;;;;;-141.84;100.00;114424.91;5010128;28;20209;-65
2023/12/12 03:00:09;;;;;;;3.47;2.93;;;;;;;-141.84;100.00;112826.88;5022943;28;20260;-65
2023/12/12 03:02:37;;;;;;;4.37;2.73;;;;;;;-141.84;100.00;112826.88;5030472;28;20265;-66
2023/12/12 03:05:06;;;;;;;3.63;3.13;;;;;;;-141.84;100.00;113892.16;5030428;28;20317;-65
2023/12/12 03:07:35;;;;;;;4.50;3.10;;;;;;;-141.84;100.00;115757.06;5030722;28;20228;-65
2023/12/12 03:10:04;;;;;;;5.33;3.00;;;;;;;-141.84;100.00;117356.25;5018432;28;20223;-66
2023/12/12 03:12:33;;;;;;;3.60;2.93;;;;;;;-141.84;100.00;117889.44;5010926;28;20194;-66
2023/12/12 03:15:03;;;;;;;4.53;3.20;;;;;;;-141.84;100.00;118422.72;5011457;28;20203;-66
2023/12/12 03:17:32;;;;;;;3.83;3.20;;;;;;;-141.84;100.00;118689.38;5010702;28;20229;-66
2023/12/12 03:20:01;;;;;;;5.33;3.70;;;;;;;-141.84;100.00;118956.03;5010658;28;20717;-65
2023/12/12 03:22:29;;;;;;;5.33;3.63;;;;;;;-141.84;100.00;118956.03;5010616;28;20983;-66
2023/12/12 03:24:58;;;;;;;5.27;3.93;;;;;;;-141.84;100.00;118689.38;5010898;28;20226;-65
2023/12/12 03:27:26;;;;;;;4.83;3.83;;;;;;;-141.84;100.00;118422.72;5011379;28;20210;-65
2023/12/12 03:29:57;;;;;;;4.50;3.70;;;;;;;-141.84;100.00;118422.72;5020879;28;20246;-66
2023/12/12 03:32:27;;;;;;;4.17;3.70;;;;;;;-141.84;100.00;118422.72;5023946;28;20238;-65
2023/12/12 03:34:55;;;;;;;7.17;4.30;;;;;;;-141.84;100.00;118956.03;5010599;28;20231;-65
2023/12/12 03:37:24;;;;;;;4.87;4.30;;;;;;;-141.84;100.00;118956.03;5010364;28;20234;-66
2023/12/12 03:39:53;;;;;;;8.10;4.87;;;;;;;-141.84;100.00;119222.75;5010329;28;20298;-66
2023/12/12 03:42:21;;;;;;;6.00;4.33;;;;;;;-141.84;100.00;119222.75;5010996;28;20218;-66
2023/12/12 03:44:50;;;;;;;5.90;4.50;;;;;;;-141.84;100.00;119224.81;5010165;28;20235;-65
2023/12/12 03:47:18;;;;;;;5.60;4.77;;;;;;;-141.84;100.00;119224.81;5009429;28;20250;-66
2023/12/12 03:49:48;;;;;;;5.47;4.73;;;;;;;-141.84;100.00;119224.81;5009941;28;20313;-66
2023/12/12 03:52:17;;;;;;;6.93;5.13;;;;;;;-141.84;100.00;119224.81;5010168;28;20230;-66
2023/12/12 03:54:45;;;;;;;6.47;4.17;;;;;;;-141.84;100.00;119224.81;5002995;28;20211;-66
2023/12/12 03:57:14;;;;;;;5.77;4.87;;;;;;;-141.84;100.00;119224.81;5010493;28;20253;-65
2023/12/12 03:59:43;;;;;;;9.03;4.97;;;;;;;-141.84;100.00;119224.81;5017642;28;20308;-66
2023/12/12 04:02:11;;;;;;;6.17;4.60;;;;;;;-141.84;100.00;119224.81;5029520;28;20312;-66
2023/12/12 04:04:40;;;;;;;7.47;4.40;;;;;;;-141.84;100.00;119224.81;5029622;28;20313;-64
2023/12/12 04:07:10;;;;;;;6.00;5.00;;;;;;;-141.84;100.00;119224.81;5013412;28;20845;-66
2023/12/12 04:09:38;;;;;;;5.70;4.83;;;;;;;-141.84;100.00;119224.81;5009851;28;20260;-66
2023/12/12 04:12:07;;;;;;;8.23;6.00;;;;;;;-141.84;100.00;119224.81;5005976;28;20294;-66
2023/12/12 04:14:36;;;;;;;8.00;6.33;;;;;;;-141.84;100.00;119224.81;4990283;28;20864;-69
2023/12/12 04:17:04;;;;;;;6.93;5.83;;;;;;;-141.84;100.00;119224.81;5000920;28;20228;-69
2023/12/12 04:19:33;;;;;;;7.67;5.63;;;;;;;-141.84;100.00;119224.81;5009978;28;20309;-69
2023/12/12 04:22:01;;;;;;;7.40;5.17;;;;;;;-141.84;100.00;119224.81;5009855;28;20304;-68
2023/12/12 04:24:31;;;;;;;6.90;5.03;;;;;;;-141.84;100.00;119224.81;5010692;28;20202;-68
2023/12/12 04:27:00;;;;;;;7.93;5.57;;;;;;;-141.84;100.00;119224.81;5010187;28;20222;-68
2023/12/12 04:29:28;;;;;;;7.47;6.03;;;;;;;-141.84;100.00;119224.81;5008553;28;20310;-68
2023/12/12 04:31:57;;;;;;;7.70;5.70;;;;;;;-141.84;100.00;119224.81;5009961;28;20255;-68
2023/12/12 04:34:25;;;;;;;7.67;5.70;;;;;;;-141.84;100.00;119224.81;5010000;28;20350;-69
2023/12/12 04:36:54;;;;;;;7.70;5.50;;;;;;;-141.84;100.00;119224.81;5010007;28;20231;-69
2023/12/12 04:39:22;;;;;;;9.73;5.80;;;;;;;-141.84;100.00;119224.81;5010427;28;20345;-69
2023/12/12 04:41:52;;;;;;;8.67;5.40;;;;;;;-141.84;100.00;119224.81;5009715;28;20234;-68
2023/12/12 04:44:21;;;;;;;9.27;5.60;;;;;;;-141.84;100.00;119224.81;5009328;28;20232;-68
2023/12/12 04:46:50;;;;;;;8.73;5.63;;;;;;;-141.84;100.00;119224.81;5009600;28;20257;-70
2023/12/12 04:49:19;;;;;;;7.97;5.83;;;;;;;-141.84;100.00;119224.81;5009703;28;20226;-68
2023/12/12 04:51:48;;;;;;;10.47;6.40;;;;;;;-141.84;100.00;119224.81;5009460;28;20234;-69
2023/12/12 04:54:18;;;;;;;8.50;6.77;;;;;;;-141.84;100.00;119224.81;5010531;28;20253;-69
2023/12/12 04:56:46;;;;;;;9.93;6.83;;;;;;;-141.84;100.00;119224.81;5009474;28;20310;-69
2023/12/12 04:59:16;;;;;;;7.47;5.60;;;;;;;-141.84;100.00;119224.81;5011324;28;20313;-69
2023/12/12 05:01:44;;;;;;;7.77;6.13;;;;;;;-141.84;100.00;119224.81;5012911;28;20317;-69
2023/12/12 05:04:13;;;;;;;8.40;6.17;;;;;;;-141.84;100.00;119224.81;5013647;28;20762;-69
2023/12/12 05:06:42;;;;;;;7.70;5.80;;;;;;;-141.84;100.00;119224.81;5013429;28;20323;-69
2023/12/12 05:09:10;;;;;;;8.50;6.33;;;;;;;-141.84;100.00;119224.81;5013820;28;20199;-69
2023/12/12 05:11:39;;;;;;;7.97;6.23;;;;;;;-141.84;100.00;119224.81;5013148;28;20310;-70
2023/12/12 05:14:10;;;;;;;7.40;5.40;;;;;;;-141.84;100.00;119224.81;5012804;28;20659;-69
2023/12/12 05:16:40;;;;;;;6.10;5.47;;;;;;;-141.84;100.00;119224.81;5012637;28;20309;-69
2023/12/12 05:19:13;;;;;;;7.67;5.27;;;;;;;-141.84;100.00;119224.81;5012922;28;20288;-68
2023/12/12 05:21:42;;;;;;;6.40;4.73;;;;;;;-141.84;100.00;119224.81;5013062;28;20207;-68
2023/12/12 05:24:10;;;;;;;5.73;4.67;;;;;;;-141.84;100.00;119224.81;5013376;28;20317;-69
2023/12/12 05:26:39;;;;;;;7.83;4.90;;;;;;;-141.84;100.00;119224.81;5012669;28;20261;-70
2023/12/12 05:29:07;;;;;;;5.90;4.70;;;;;;;-141.84;100.00;119224.81;5012207;28;20230;-69
2023/12/12 05:31:36;;;;;;;8.40;6.80;;;;;;;-141.84;100.00;119224.81;5012483;28;20322;-69
2023/12/12 05:34:06;;;;;;;8.07;5.33;;;;;;;-141.84;100.00;119224.81;5012448;28;20709;-69
2023/12/12 05:36:35;;;;;;;6.70;5.20;;;;;;;-141.84;100.00;119224.81;5012462;28;20192;-68
2023/12/12 05:39:03;;;;;;;8.47;5.53;;;;;;;-141.84;100.00;119224.81;5013202;28;20566;-69
2023/12/12 05:41:32;;;;;;;8.13;5.30;;;;;;;-141.84;100.00;119224.81;5012528;28;20309;-68
2023/12/12 05:44:00;;;;;;;7.13;4.80;;;;;;;-141.84;100.00;119224.81;5012337;28;20309;-69
2023/12/12 05:46:29;;;;;;;6.20;5.60;;;;;;;-141.84;100.00;119224.81;5012223;28;20328;-69
2023/12/12 05:48:58;;;;;;;7.57;5.40;;;;;;;-141.84;100.00;119224.81;5012279;28;20230;-68
2023/12/12 05:51:28;;;;;;;9.67;6.53;;;;;;;-141.84;100.00;119224.81;5012916;28;20207;-69
2023/12/12 05:53:56;;;;;;;9.57;6.67;;;;;;;-141.84;100.00;119224.81;5012134;28;20308;-69
2023/12/12 05:56:25;;;;;;;11.50;7.67;;;;;;;-141.84;100.00;119224.81;5012046;28;20230;-69
2023/12/12 05:58:53;;;;;;;12.83;8.13;;;;;;;-141.84;100.00;119224.81;5012332;28;20262;-69
2023/12/12 06:01:22;;;;;;;8.93;7.17;;;;;;;-141.84;100.00;119224.81;5011912;28;20230;-69
2023/12/12 06:03:51;;;;;;;9.37;7.10;;;;;;;-141.84;100.00;119224.81;5012379;28;20227;-70
2023/12/12 06:06:21;;;;;;;8.37;6.93;;;;;;;-141.84;100.00;119224.81;5012492;28;20203;-68
2023/12/12 06:08:51;;;;;;;8.63;6.43;;;;;;;-141.84;100.00;119224.81;5011717;28;20234;-68
2023/12/12 06:11:21;;;;;;;9.80;6.77;;;;;;;-141.84;100.00;119224.81;5011148;28;20226;-68
2023/12/12 06:13:49;;;;;;;8.43;5.67;;;;;;;-141.84;100.00;119224.81;5011850;28;20226;-69
2023/12/12 06:16:18;;;;;;;8.90;5.80;;;;;;;-141.84;100.00;119224.81;5011788;28;20306;-69
2023/12/12 06:18:48;;;;;;;10.13;5.80;;;;;;;-141.84;100.00;119224.81;5011569;28;20526;-69
2023/12/12 06:21:16;;;;;;;9.67;5.27;;;;;;;-141.84;100.00;119224.81;5012269;28;20208;-70
2023/12/12 06:23:45;;;;;;;8.20;5.27;;;;;;;-141.84;100.00;119224.81;5011253;28;20258;-69
2023/12/12 06:26:15;;;;;;;10.60;6.27;;;;;;;-141.84;100.00;119224.81;5012106;28;20258;-68
2023/12/12 06:28:44;;;;;;;10.07;6.10;;;;;;;-141.84;100.00;119224.81;5011823;28;20320;-68
2023/12/12 06:31:12;;;;;;;6.87;5.80;;;;;;;-141.84;100.00;119224.81;5011551;28;20230;-69
2023/12/12 06:33:41;;;;;;;10.20;5.97;;;;;;;-141.84;100.00;119224.81;5011766;28;20273;-69
2023/12/12 06:36:10;;;;;;;7.23;5.93;;;;;;;-141.84;100.00;119224.81;5010695;28;20249;-69
2023/12/12 06:38:40;;;;;;;9.63;6.00;;;;;;;-141.84;100.00;119224.81;5011271;28;20229;-69
2023/12/12 06:41:09;;;;;;;8.27;5.83;;;;;;;-141.84;100.00;119224.81;5011592;28;20269;-68
2023/12/12 06:43:39;;;;;;;8.43;5.27;;;;;;;-141.84;100.00;119224.81;5010416;28;20242;-69
2023/12/12 06:46:08;;;;;;;7.33;5.77;;;;;;;-141.84;100.00;119224.81;5011388;28;20317;-69
2023/12/12 06:48:38;;;;;;;8.30;5.63;;;;;;;-141.84;100.00;119224.81;5011549;28;20199;-69
2023/12/12 06:51:09;;;;;;;7.30;5.70;;;;;;;-141.84;100.00;119224.81;5011759;28;20713;-69
2023/12/12 06:53:37;;;;;;;6.03;5.27;;;;;;;-141.84;100.00;119224.81;5011138;28;20265;-68
2023/12/12 06:56:07;;;;;;;9.03;5.17;;;;;;;-141.84;100.00;119224.81;5009602;28;20755;-67
2023/12/12 06:58:35;;;;;;;6.17;4.47;;;;;;;-141.84;100.00;119224.81;5010873;28;20326;-68
2023/12/12 07:01:05;;;;;;;8.60;4.80;;;;;;;-141.84;100.00;119224.81;5011029;28;20251;-69
2023/12/12 07:03:34;;;;;;;5.13;4.10;;;;;;;-141.84;100.00;119224.81;5010985;28;20211;-69
2023/12/12 07:06:06;;;;;;;5.57;4.20;;;;;;;-141.84;100.00;119224.81;5011730;28;20715;-70
2023/12/12 07:08:35;;;;;;;6.53;4.43;;;;;;;-141.84;100.00;119224.81;5011100;28;20780;-70
2023/12/12 07:11:04;;;;;;;5.80;3.90;;;;;;;-141.84;100.00;119224.81;4991411;28;20609;-69
2023/12/12 07:13:33;;;;;;;5.17;3.47;;;;;;;-141.84;100.00;118422.72;4991598;28;20250;-69
2023/12/12 07:16:01;;;;;;;4.77;4.13;;;;;;;-141.84;100.00;118156.06;5010226;28;20577;-70
2023/12/12 07:18:32;;;;;;;5.27;4.10;;;;;;;-141.84;100.00;116556.59;5007844;28;20231;-69
2023/12/12 07:21:02;;;;;;;3.97;3.50;;;;;;;-141.84;100.00;116556.59;5010889;28;20202;-70
2023/12/12 07:23:30;;;;;;;4.37;3.97;;;;;;;-141.84;100.00;117889.44;5010503;28;20321;-70
2023/12/12 07:25:59;;;;;;;8.30;4.40;;;;;;;-141.84;100.00;118422.72;5010692;28;20313;-69
2023/12/12 07:28:28;;;;;;;8.10;4.73;;;;;;;-141.84;100.00;117889.44;5010590;28;20238;-69
2023/12/12 07:30:56;;;;;;;4.90;4.07;;;;;;;-141.84;100.00;118156.06;5010511;28;20231;-69
2023/12/12 07:33:25;;;;;;;5.50;4.10;;;;;;;-141.84;100.00;118422.72;5010711;28;20656;-69
2023/12/12 07:35:55;;;;;;;6.57;4.40;;;;;;;-141.84;100.00;118422.72;5010592;28;20293;-68
2023/12/12 07:38:23;;;;;;;6.43;4.07;;;;;;;-141.84;100.00;118156.06;5010471;28;20245;-68
2023/12/12 07:40:52;;;;;;;7.63;4.77;;;;;;;-141.84;100.00;118156.06;5003400;28;20317;-69
2023/12/12 07:43:20;;;;;;;7.30;4.77;;;;;;;-141.84;100.00;118689.38;5010000;28;20322;-68
2023/12/12 07:45:49;;;;;;;6.27;4.50;;;;;;;-141.84;100.00;118422.72;5009892;28;20305;-68
2023/12/12 07:48:18;;;;;;;6.80;4.53;;;;;;;-141.84;100.00;118422.72;5010703;28;20293;-68
2023/12/12 07:50:46;;;;;;;6.10;4.53;;;;;;;-141.84;100.00;118422.72;5010295;28;20309;-68
2023/12/12 07:53:17;;;;;;;6.87;4.73;;;;;;;-141.84;100.00;118956.03;5010377;28;20318;-68
2023/12/12 07:55:46;;;;;;;6.03;4.60;;;;;;;-141.84;100.00;119224.81;5010286;28;20276;-68
2023/12/12 07:58:14;;;;;;;6.23;4.60;;;;;;;-141.84;100.00;119224.81;5010644;28;20225;-68
2023/12/12 08:00:44;;;;;;;5.23;4.50;;;;;;;-141.84;100.00;119224.81;5010494;28;20210;-68
2023/12/12 08:03:13;;;;;;;6.47;4.60;;;;;;;-141.84;100.00;119224.81;5011095;28;20199;-69
2023/12/12 08:05:41;;;;;;;8.17;5.23;;;;;;;-141.84;100.00;119224.81;5010301;28;20231;-68
2023/12/12 08:08:10;;;;;;;8.50;5.00;;;;;;;-141.84;100.00;119224.81;5010348;28;20725;-68
2023/12/12 08:10:40;;;;;;;9.70;4.93;;;;;;;-141.84;100.00;119224.81;5010087;28;20226;-68
2023/12/12 08:13:09;;;;;;;7.53;5.27;;;;;;;-141.84;100.00;119224.81;5010534;28;20242;-68
2023/12/12 08:15:38;;;;;;;5.53;4.73;;;;;;;-141.84;100.00;119224.81;5010405;28;20698;-67
2023/12/12 08:18:09;;;;;;;7.43;4.67;;;;;;;-141.84;100.00;119224.81;5011083;28;20289;-69
2023/12/12 08:20:39;;;;;;;6.93;4.73;;;;;;;-141.84;100.00;119224.81;5010238;28;20242;-67
2023/12/12 08:23:09;;;;;;;9.07;5.37;;;;;;;-141.84;100.00;119224.81;5010134;28;20363;-69
2023/12/12 08:25:39;;;;;;;8.93;5.50;;;;;;;-141.84;100.00;119224.81;5010228;28;20308;-68
2023/12/12 08:28:09;;;;;;;8.87;5.53;;;;;;;-141.84;100.00;119224.81;5010625;28;20257;-68
2023/12/12 08:30:37;;;;;;;9.10;5.60;;;;;;;-141.84;100.00;119224.81;5009882;28;20261;-68
2023/12/12 08:33:06;;;;;;;8.47;5.40;;;;;;;-141.84;100.00;119224.81;5010958;28;20322;-68
2023/12/12 08:35:35;;;;;;;7.00;5.37;;;;;;;-141.84;100.00;119224.81;5008681;28;20627;-69
2023/12/12 08:38:04;;;;;;;7.17;5.50;;;;;;;-141.84;100.00;119224.81;5007174;28;20313;-69
2023/12/12 08:40:33;;;;;;;10.53;6.23;;;;;;;-141.84;100.00;119224.81;5013837;28;20254;-67
2023/12/12 08:43:02;;;;;;;8.60;6.27;;;;;;;-141.84;100.00;119224.81;5013963;28;20277;-69
2023/12/12 08:45:32;;;;;;;8.33;5.40;;;;;;;-141.84;100.00;119224.81;5014089;28;20322;-68
2023/12/12 08:48:01;;;;;;;7.63;5.10;;;;;;;-141.84;100.00;119224.81;5013793;28;20222;-68
2023/12/12 08:50:29;;;;;;;9.37;5.77;;;;;;;-141.84;100.00;119224.81;5013613;28;20325;-69
2023/12/12 08:52:58;;;;;;;8.47;5.70;;;;;;;-141.84;100.00;119224.81;5014220;28;20349;-68
2023/12/12 08:55:27;;;;;;;11.17;6.07;;;;;;;-141.84;100.00;117622.84;5013759;28;20257;-68
2023/12/12 08:57:55;;;;;;;9.20;5.30;;;;;;;-141.84;100.00;116290.06;5013856;28;20230;-67
2023/12/12 09:00:25;;;;;;;6.10;4.97;;;;;;;-141.84;100.00;113892.16;5014328;28;20203;-69
2023/12/12 09:02:54;;;;;;;8.27;4.80;;;;;;;-141.84;100.00;113625.81;5013134;28;20246;-68
2023/12/12 09:05:23;;;;;;;8.67;5.60;;;;;;;-141.84;100.00;114158.53;5013256;28;20313;-68
2023/12/12 09:07:52;;;;;;;7.93;5.37;;;;;;;-141.84;100.00;115224.16;5013375;28;20241;-67
2023/12/12 09:10:20;;;;;;;8.57;5.53;;;;;;;-141.84;100.00;115757.06;5013129;28;20226;-69
2023/12/12 09:12:49;;;;;;;8.90;4.93;;;;;;;-141.84;100.00;115757.06;5013501;28;20554;-68
2023/12/12 09:15:18;;;;;;;8.67;5.50;;;;;;;-141.84;100.00;116023.56;5013623;28;20202;-69
2023/12/12 09:17:48;;;;;;;6.97;5.30;;;;;;;-141.84;100.00;115757.06;5013202;28;20237;-69
2023/12/12 09:20:36;;;;;;;8.23;5.73;;;;;;;-141.84;100.00;114424.91;5012914;28;20249;-68
2023/12/12 09:23:05;;;;;;;9.20;6.20;;;;;;;-141.84;100.00;112294.34;5013066;28;20227;-68
2023/12/12 09:25:34;;;;;;;8.47;5.60;;;;;;;-141.84;100.00;112028.13;5012823;28;20269;-69
2023/12/12 09:28:02;;;;;;;7.43;5.07;;;;;;;-141.84;100.00;112294.34;5012955;28;20230;-69
2023/12/12 09:30:31;;;;;;;7.67;5.70;;;;;;;-141.84;100.00;110697.16;5013059;28;20211;-69
2023/12/12 09:33:01;;;;;;;6.93;5.07;;;;;;;-141.84;100.00;110431.03;5008530;28;20245;-68
2023/12/12 09:35:30;;;;;;;6.50;5.40;;;;;;;-141.84;100.00;110697.16;5012964;28;20595;-68
2023/12/12 09:37:58;;;;;;;7.80;5.40;;;;;;;-141.84;100.00;109898.81;5013033;28;20269;-68
2023/12/12 09:40:27;;;;;;;8.67;5.17;;;;;;;-141.84;100.00;109898.81;5012527;28;20703;-68
2023/12/12 09:42:57;;;;;;;8.30;5.10;;;;;;;-141.84;100.00;106706.94;5012900;28;20226;-68
2023/12/12 09:45:26;;;;;;;5.33;4.23;;;;;;;-141.84;100.00;102189.38;5011736;28;20218;-69
2023/12/12 09:47:56;;;;;;;7.43;4.40;;;;;;;-141.84;100.00;92904.41;5012793;28;20313;-68
2023/12/12 09:50:28;;;;;;;7.10;4.07;;;;;;;-141.84;97.84;71234.38;5012665;28;20235;-68
2023/12/12 09:52:57;;;;;;;6.47;4.17;;;;;;;-141.84;97.55;69916.81;5012579;28;20258;-68
2023/12/12 09:55:28;;;;;;;6.47;3.70;;;;;;;-141.84;96.59;65440.38;5012340;28;20223;-68
2023/12/12 09:57:57;;;;;;;5.87;3.83;;;;;;;-141.84;97.12;67546.31;5012462;28;20682;-67
2023/12/12 10:00:25;;;;;;;7.07;3.80;;;;;;;-141.84;92.74;46798.88;5012902;28;20228;-67
2023/12/12 10:02:58;;;;;;;5.60;3.30;;;;;;;-141.84;92.88;45751.28;5012284;28;20236;-68
2023/12/12 10:05:31;;;;;;;6.60;3.47;;;;;;;-141.84;91.89;40325.31;5012080;28;20284;-68
2023/12/12 10:08:01;;;;;;;5.43;3.33;;;;;;;-141.84;91.33;39659.34;5012346;28;20234;-68
2023/12/12 10:10:41;;;;;;;6.20;3.60;;;;;;;-141.84;88.39;25313.22;5011906;28;20277;-68
2023/12/12 10:13:10;;;;;;;6.37;3.30;;;;;;;-141.84;89.18;27725.69;5012600;28;20227;-68
2023/12/12 10:15:39;;;;;;;5.90;3.40;;;;;;;-141.84;88.62;26514.19;5012460;28;20207;-69
2023/12/12 10:18:08;;;;;;;5.30;3.00;;;;;;;-141.84;86.63;22086.69;5015462;28;20211;-68
2023/12/12 10:20:38;;;;;;;5.00;3.00;;;;;;;-141.84;84.07;20193.91;5015213;28;20631;-68
2023/12/12 10:23:06;;;;;;;6.77;3.57;;;;;;;-141.84;84.55;20297.56;5015246;28;20703;-67
2023/12/12 10:25:36;;;;;;;6.87;3.87;;;;;;;-141.84;83.13;19679.72;5015307;28;20226;-69
2023/12/12 10:28:05;;;;;;;5.63;3.40;;;;;;;-141.84;84.20;20008.94;5010590;28;20575;-69
2023/12/12 10:30:35;;;;;;;7.00;3.00;;;;;;;-141.84;83.57;19789.44;5007504;28;20226;-68
2023/12/12 10:33:11;;;;;;;5.53;2.90;;;;;;;-141.84;80.09;19096.47;5012304;28;20234;-69
2023/12/12 10:35:45;;;;;;;7.07;3.30;;;;;;;-141.84;79.65;19057.88;5012388;28;20238;-69
2023/12/12 10:38:14;;;;;;;5.57;2.90;;;;;;;-141.84;80.89;19210.28;5012024;28;20225;-68
2023/12/12 10:40:42;;;;;;;5.87;3.10;;;;;;;-141.84;81.12;19246.84;5011643;28;20719;-68
2023/12/12 10:43:12;;;;;;;4.97;2.83;;;;;;;-141.84;79.79;19102.56;5011877;28;20230;-68
2023/12/12 10:45:42;;;;;;;6.70;3.10;;;;;;;-141.84;78.23;19003.00;5012106;28;20693;-68
2023/12/12 10:48:13;;;;;;;8.50;2.93;;;;;;;-141.84;77.74;18935.97;5012036;28;20192;-68
2023/12/12 10:50:49;;;;;;;4.80;2.47;;;;;;;-141.84;78.50;18992.84;5011155;28;20713;-69
2023/12/12 10:53:18;;;;;;;5.10;3.00;;;;;;;-141.84;78.59;18980.66;5011368;28;20257;-68
2023/12/12 10:55:50;;;;;;;7.80;3.20;;;;;;;-141.84;76.88;18925.81;5011653;28;20412;-67
2023/12/12 10:58:20;;;;;;;4.23;2.80;;;;;;;-141.84;77.67;18931.91;5011450;28;20227;-68
2023/12/12 11:00:49;;;;;;;5.37;2.97;;;;;;;-141.84;76.59;18881.09;5011792;28;20210;-68
2023/12/12 11:03:21;;;;;;;7.03;3.30;;;;;;;-141.84;76.49;18887.19;5011472;28;20222;-68
2023/12/12 11:05:51;;;;;;;5.83;3.10;;;;;;;-141.84;78.06;18946.13;5011191;28;20231;-68
2023/12/12 11:08:21;;;;;;;5.77;3.10;;;;;;;-141.84;78.11;18962.38;5011343;28;20277;-69
2023/12/12 11:10:52;;;;;;;7.33;3.27;;;;;;;-141.84;78.43;18976.59;5011242;28;20309;-68
2023/12/12 11:13:22;;;;;;;5.53;3.13;;;;;;;-141.84;78.92;19031.47;5010925;28;20231;-68